LFPO/ORY METAR and TAF weather

Enter ICAO airport designator
Station Type Date Time Source
LFPO METAR 2019/10/15 09:30 UTC NOAA

LFPO 150930Z 25009KT 9999 FEW015 BKN100 BKN220 14/11 Q1008 NOSIG


Station Type Date Time Source
LFPO Decoded METAR 2019/10/15 09:30 UTC NOAA

Paris-Orly, France (LFPO) 48-44N 002-24E 96M
Oct 15, 2019 - 05:30 AM EDT / 2019.10.15 0930 UTC
Wind: from the WSW (250 degrees) at 10 MPH (9 KT):0
Visibility: greater than 7 mile(s):0
Sky conditions: mostly cloudy
Temperature: 57 F (14 C)
Dew Point: 51 F (11 C)
Relative Humidity: 82%
Pressure (altimeter): 29.77 in. Hg (1008 hPa)
ob: LFPO 150930Z 25009KT 9999 FEW015 BKN100 BKN220 14/11 Q1008 NOSIG
cycle: 9

Station Type Date Time Source
LFPO TAF 2019/10/15 06:21 UTC NOAA

TAF TAF LFPO 150500Z 1506/1612 20010KT 9999 SCT016 BKN060 PROB40
TEMPO 1506/1509 -RA BKN012 PROB30
TEMPO 1506/1507 BKN006
BECMG 1509/1512 SCT025
TEMPO 1515/1518 4000 -SHRA SCT020TCU
TEMPO 1602/1612 21015G25KT -RA BKN012 PROB30
TEMPO 1603/1608 -RADZ BKN008 PROB30
TEMPO 1608/1611 21017G30KT

Example: see airport list